sensor_id;sensor_type;location;lat;lon;timestamp;P1;durP1;ratioP1;P2;durP2;ratioP2
53881;SDS011;39794;55.782;37.452;2023-07-31T00:02:26;3.97;;;3.30;;
53881;SDS011;39794;55.782;37.452;2023-07-31T00:04:54;3.65;;;3.22;;
53881;SDS011;39794;55.782;37.452;2023-07-31T00:07:23;5.55;;;4.20;;
53881;SDS011;39794;55.782;37.452;2023-07-31T00:09:52;6.05;;;3.90;;
53881;SDS011;39794;55.782;37.452;2023-07-31T00:12:25;7.28;;;3.90;;
53881;SDS011;39794;55.782;37.452;2023-07-31T00:14:54;6.07;;;4.13;;
53881;SDS011;39794;55.782;37.452;2023-07-31T00:17:22;4.78;;;3.75;;
53881;SDS011;39794;55.782;37.452;2023-07-31T00:19:51;5.18;;;3.08;;
53881;SDS011;39794;55.782;37.452;2023-07-31T00:22:19;5.07;;;3.60;;
53881;SDS011;39794;55.782;37.452;2023-07-31T00:24:55;6.32;;;3.00;;
53881;SDS011;39794;55.782;37.452;2023-07-31T00:27:33;4.03;;;3.00;;
53881;SDS011;39794;55.782;37.452;2023-07-31T00:30:02;4.68;;;3.53;;
53881;SDS011;39794;55.782;37.452;2023-07-31T00:32:33;5.97;;;3.58;;
53881;SDS011;39794;55.782;37.452;2023-07-31T00:35:01;8.05;;;3.53;;
53881;SDS011;39794;55.782;37.452;2023-07-31T00:37:31;5.63;;;3.58;;
53881;SDS011;39794;55.782;37.452;2023-07-31T00:39:59;5.25;;;3.00;;
53881;SDS011;39794;55.782;37.452;2023-07-31T00:42:30;4.55;;;2.90;;
53881;SDS011;39794;55.782;37.452;2023-07-31T00:45:00;5.90;;;3.08;;
53881;SDS011;39794;55.782;37.452;2023-07-31T00:47:30;4.45;;;3.17;;
53881;SDS011;39794;55.782;37.452;2023-07-31T00:49:59;3.38;;;2.55;;
53881;SDS011;39794;55.782;37.452;2023-07-31T00:52:30;4.78;;;3.05;;
53881;SDS011;39794;55.782;37.452;2023-07-31T00:54:59;5.20;;;3.30;;
53881;SDS011;39794;55.782;37.452;2023-07-31T00:57:30;8.48;;;3.00;;
53881;SDS011;39794;55.782;37.452;2023-07-31T01:00:02;5.10;;;3.38;;
53881;SDS011;39794;55.782;37.452;2023-07-31T01:02:32;8.20;;;3.00;;
53881;SDS011;39794;55.782;37.452;2023-07-31T01:05:01;5.88;;;3.28;;
53881;SDS011;39794;55.782;37.452;2023-07-31T01:07:32;5.43;;;2.97;;
53881;SDS011;39794;55.782;37.452;2023-07-31T01:10:08;4.80;;;3.17;;
53881;SDS011;39794;55.782;37.452;2023-07-31T01:12:41;4.68;;;2.72;;
53881;SDS011;39794;55.782;37.452;2023-07-31T01:15:14;6.05;;;2.70;;
53881;SDS011;39794;55.782;37.452;2023-07-31T01:17:44;5.72;;;3.50;;
53881;SDS011;39794;55.782;37.452;2023-07-31T01:20:14;4.38;;;2.97;;
53881;SDS011;39794;55.782;37.452;2023-07-31T01:23:01;6.90;;;3.35;;
53881;SDS011;39794;55.782;37.452;2023-07-31T01:25:56;6.50;;;2.97;;
53881;SDS011;39794;55.782;37.452;2023-07-31T01:28:32;6.78;;;3.30;;
53881;SDS011;39794;55.782;37.452;2023-07-31T01:31:04;5.53;;;3.15;;
53881;SDS011;39794;55.782;37.452;2023-07-31T01:33:37;7.95;;;3.10;;
53881;SDS011;39794;55.782;37.452;2023-07-31T01:36:06;3.75;;;2.65;;
53881;SDS011;39794;55.782;37.452;2023-07-31T01:38:35;4.90;;;3.05;;
53881;SDS011;39794;55.782;37.452;2023-07-31T01:41:05;4.55;;;3.08;;
53881;SDS011;39794;55.782;37.452;2023-07-31T01:43:34;5.15;;;3.15;;
53881;SDS011;39794;55.782;37.452;2023-07-31T01:46:05;4.18;;;2.85;;
53881;SDS011;39794;55.782;37.452;2023-07-31T01:48:33;6.22;;;3.55;;
53881;SDS011;39794;55.782;37.452;2023-07-31T01:51:03;4.85;;;3.38;;
53881;SDS011;39794;55.782;37.452;2023-07-31T01:53:32;5.00;;;3.35;;
53881;SDS011;39794;55.782;37.452;2023-07-31T01:56:01;6.82;;;3.15;;
53881;SDS011;39794;55.782;37.452;2023-07-31T01:58:32;4.82;;;3.08;;
53881;SDS011;39794;55.782;37.452;2023-07-31T02:01:01;5.90;;;3.33;;
53881;SDS011;39794;55.782;37.452;2023-07-31T02:03:30;4.82;;;3.33;;
53881;SDS011;39794;55.782;37.452;2023-07-31T02:06:00;4.68;;;3.78;;
53881;SDS011;39794;55.782;37.452;2023-07-31T02:08:29;5.15;;;3.75;;
53881;SDS011;39794;55.782;37.452;2023-07-31T02:10:57;9.32;;;4.25;;
53881;SDS011;39794;55.782;37.452;2023-07-31T02:13:26;6.72;;;3.30;;
53881;SDS011;39794;55.782;37.452;2023-07-31T02:15:56;6.25;;;3.47;;
53881;SDS011;39794;55.782;37.452;2023-07-31T02:18:25;6.05;;;3.35;;
53881;SDS011;39794;55.782;37.452;2023-07-31T02:20:54;5.07;;;3.10;;
53881;SDS011;39794;55.782;37.452;2023-07-31T02:23:27;4.35;;;2.67;;
53881;SDS011;39794;55.782;37.452;2023-07-31T02:25:56;5.20;;;3.30;;
53881;SDS011;39794;55.782;37.452;2023-07-31T02:28:24;4.15;;;3.30;;
53881;SDS011;39794;55.782;37.452;2023-07-31T02:30:55;6.40;;;3.13;;
53881;SDS011;39794;55.782;37.452;2023-07-31T02:33:25;4.78;;;3.13;;
53881;SDS011;39794;55.782;37.452;2023-07-31T02:35:54;6.25;;;3.78;;
53881;SDS011;39794;55.782;37.452;2023-07-31T02:38:24;4.55;;;3.30;;
53881;SDS011;39794;55.782;37.452;2023-07-31T02:40:53;5.30;;;3.25;;
53881;SDS011;39794;55.782;37.452;2023-07-31T02:43:21;5.32;;;3.17;;
53881;SDS011;39794;55.782;37.452;2023-07-31T02:45:51;4.07;;;3.20;;
53881;SDS011;39794;55.782;37.452;2023-07-31T02:48:21;4.93;;;3.65;;
53881;SDS011;39794;55.782;37.452;2023-07-31T02:50:50;7.47;;;2.97;;
53881;SDS011;39794;55.782;37.452;2023-07-31T02:53:18;5.00;;;3.05;;
53881;SDS011;39794;55.782;37.452;2023-07-31T02:55:47;5.47;;;3.05;;
53881;SDS011;39794;55.782;37.452;2023-07-31T02:58:16;6.25;;;3.67;;
53881;SDS011;39794;55.782;37.452;2023-07-31T03:00:44;4.75;;;3.33;;
53881;SDS011;39794;55.782;37.452;2023-07-31T03:03:13;4.43;;;3.47;;
53881;SDS011;39794;55.782;37.452;2023-07-31T03:05:43;5.57;;;3.90;;
53881;SDS011;39794;55.782;37.452;2023-07-31T03:08:12;3.75;;;3.25;;
53881;SDS011;39794;55.782;37.452;2023-07-31T03:10:42;7.63;;;3.90;;
53881;SDS011;39794;55.782;37.452;2023-07-31T03:13:10;4.80;;;3.20;;
53881;SDS011;39794;55.782;37.452;2023-07-31T03:15:41;5.95;;;3.72;;
53881;SDS011;39794;55.782;37.452;2023-07-31T03:18:10;7.28;;;3.70;;
53881;SDS011;39794;55.782;37.452;2023-07-31T03:20:41;4.80;;;3.30;;
53881;SDS011;39794;55.782;37.452;2023-07-31T03:23:12;7.75;;;3.83;;
53881;SDS011;39794;55.782;37.452;2023-07-31T03:25:41;5.40;;;3.67;;
53881;SDS011;39794;55.782;37.452;2023-07-31T03:28:10;3.83;;;3.08;;
53881;SDS011;39794;55.782;37.452;2023-07-31T03:30:39;4.68;;;3.80;;
53881;SDS011;39794;55.782;37.452;2023-07-31T03:33:08;5.47;;;3.70;;
53881;SDS011;39794;55.782;37.452;2023-07-31T03:35:37;8.77;;;3.60;;
53881;SDS011;39794;55.782;37.452;2023-07-31T03:38:07;4.97;;;3.38;;
53881;SDS011;39794;55.782;37.452;2023-07-31T03:40:38;5.38;;;3.70;;
53881;SDS011;39794;55.782;37.452;2023-07-31T03:43:06;5.22;;;3.45;;
53881;SDS011;39794;55.782;37.452;2023-07-31T03:45:37;6.60;;;3.40;;
53881;SDS011;39794;55.782;37.452;2023-07-31T03:48:06;7.75;;;3.47;;
53881;SDS011;39794;55.782;37.452;2023-07-31T03:50:35;7.38;;;3.88;;
53881;SDS011;39794;55.782;37.452;2023-07-31T03:53:04;8.43;;;3.70;;
53881;SDS011;39794;55.782;37.452;2023-07-31T03:55:34;7.28;;;3.42;;
53881;SDS011;39794;55.782;37.452;2023-07-31T03:58:02;9.90;;;4.25;;
53881;SDS011;39794;55.782;37.452;2023-07-31T04:00:32;7.78;;;4.07;;
53881;SDS011;39794;55.782;37.452;2023-07-31T04:03:00;4.85;;;3.30;;
53881;SDS011;39794;55.782;37.452;2023-07-31T04:05:30;5.60;;;3.25;;
53881;SDS011;39794;55.782;37.452;2023-07-31T04:07:59;6.22;;;3.20;;
53881;SDS011;39794;55.782;37.452;2023-07-31T04:10:28;7.20;;;3.40;;
53881;SDS011;39794;55.782;37.452;2023-07-31T04:12:59;4.55;;;3.28;;
53881;SDS011;39794;55.782;37.452;2023-07-31T04:15:28;14.68;;;4.00;;
53881;SDS011;39794;55.782;37.452;2023-07-31T04:17:57;4.72;;;3.38;;
53881;SDS011;39794;55.782;37.452;2023-07-31T04:20:25;6.82;;;3.42;;
53881;SDS011;39794;55.782;37.452;2023-07-31T04:22:54;7.60;;;3.35;;
53881;SDS011;39794;55.782;37.452;2023-07-31T04:25:22;5.28;;;3.25;;
53881;SDS011;39794;55.782;37.452;2023-07-31T04:27:52;10.88;;;3.28;;
53881;SDS011;39794;55.782;37.452;2023-07-31T04:30:22;7.95;;;3.63;;
53881;SDS011;39794;55.782;37.452;2023-07-31T04:32:51;3.65;;;2.80;;
53881;SDS011;39794;55.782;37.452;2023-07-31T04:35:20;6.35;;;3.25;;
53881;SDS011;39794;55.782;37.452;2023-07-31T04:37:49;4.15;;;3.08;;
53881;SDS011;39794;55.782;37.452;2023-07-31T04:40:17;6.68;;;3.13;;
53881;SDS011;39794;55.782;37.452;2023-07-31T04:42:46;4.15;;;2.65;;
53881;SDS011;39794;55.782;37.452;2023-07-31T04:45:15;5.57;;;3.25;;
53881;SDS011;39794;55.782;37.452;2023-07-31T04:47:46;5.93;;;3.10;;
53881;SDS011;39794;55.782;37.452;2023-07-31T04:50:16;6.10;;;2.92;;
53881;SDS011;39794;55.782;37.452;2023-07-31T04:52:44;6.25;;;3.05;;
53881;SDS011;39794;55.782;37.452;2023-07-31T04:55:14;5.13;;;3.05;;
53881;SDS011;39794;55.782;37.452;2023-07-31T04:57:43;4.97;;;2.92;;
53881;SDS011;39794;55.782;37.452;2023-07-31T05:00:12;4.82;;;2.78;;
53881;SDS011;39794;55.782;37.452;2023-07-31T05:02:41;6.20;;;2.53;;
53881;SDS011;39794;55.782;37.452;2023-07-31T05:05:11;7.15;;;2.80;;
53881;SDS011;39794;55.782;37.452;2023-07-31T05:07:40;8.68;;;3.85;;
53881;SDS011;39794;55.782;37.452;2023-07-31T05:10:09;6.38;;;2.75;;
53881;SDS011;39794;55.782;37.452;2023-07-31T05:12:37;5.97;;;3.08;;
53881;SDS011;39794;55.782;37.452;2023-07-31T05:15:07;5.38;;;3.00;;
53881;SDS011;39794;55.782;37.452;2023-07-31T05:17:36;10.18;;;3.30;;
53881;SDS011;39794;55.782;37.452;2023-07-31T05:20:05;6.03;;;2.97;;
53881;SDS011;39794;55.782;37.452;2023-07-31T05:22:38;7.53;;;3.22;;
53881;SDS011;39794;55.782;37.452;2023-07-31T05:25:07;3.80;;;2.83;;
53881;SDS011;39794;55.782;37.452;2023-07-31T05:27:36;5.68;;;3.30;;
53881;SDS011;39794;55.782;37.452;2023-07-31T05:30:05;3.85;;;2.70;;
53881;SDS011;39794;55.782;37.452;2023-07-31T05:32:34;3.05;;;2.70;;
53881;SDS011;39794;55.782;37.452;2023-07-31T05:35:03;5.20;;;2.70;;
53881;SDS011;39794;55.782;37.452;2023-07-31T05:37:33;4.30;;;2.60;;
53881;SDS011;39794;55.782;37.452;2023-07-31T05:40:03;5.93;;;2.50;;
53881;SDS011;39794;55.782;37.452;2023-07-31T05:42:33;4.05;;;2.20;;
53881;SDS011;39794;55.782;37.452;2023-07-31T05:45:04;4.57;;;2.60;;
53881;SDS011;39794;55.782;37.452;2023-07-31T05:47:34;4.30;;;2.40;;
53881;SDS011;39794;55.782;37.452;2023-07-31T05:50:03;4.13;;;2.67;;
53881;SDS011;39794;55.782;37.452;2023-07-31T05:52:32;4.63;;;2.30;;
53881;SDS011;39794;55.782;37.452;2023-07-31T05:55:00;6.22;;;2.40;;
53881;SDS011;39794;55.782;37.452;2023-07-31T05:57:31;3.75;;;2.47;;
53881;SDS011;39794;55.782;37.452;2023-07-31T05:59:59;6.30;;;2.60;;
53881;SDS011;39794;55.782;37.452;2023-07-31T06:02:31;3.25;;;2.20;;
53881;SDS011;39794;55.782;37.452;2023-07-31T06:05:04;7.80;;;3.05;;
53881;SDS011;39794;55.782;37.452;2023-07-31T06:07:34;5.65;;;2.92;;
53881;SDS011;39794;55.782;37.452;2023-07-31T06:10:07;5.82;;;2.88;;
53881;SDS011;39794;55.782;37.452;2023-07-31T06:12:36;4.65;;;2.80;;
53881;SDS011;39794;55.782;37.452;2023-07-31T06:15:05;3.88;;;2.63;;
53881;SDS011;39794;55.782;37.452;2023-07-31T06:17:34;5.75;;;2.40;;
53881;SDS011;39794;55.782;37.452;2023-07-31T06:20:03;2.72;;;2.20;;
53881;SDS011;39794;55.782;37.452;2023-07-31T06:22:34;4.88;;;2.50;;
53881;SDS011;39794;55.782;37.452;2023-07-31T06:25:05;4.38;;;2.20;;
53881;SDS011;39794;55.782;37.452;2023-07-31T06:27:34;6.22;;;2.28;;
53881;SDS011;39794;55.782;37.452;2023-07-31T06:30:04;4.90;;;1.98;;
53881;SDS011;39794;55.782;37.452;2023-07-31T06:32:34;2.83;;;2.08;;
53881;SDS011;39794;55.782;37.452;2023-07-31T06:35:04;4.07;;;1.98;;
53881;SDS011;39794;55.782;37.452;2023-07-31T06:37:33;4.63;;;1.63;;
53881;SDS011;39794;55.782;37.452;2023-07-31T06:40:06;3.33;;;1.45;;
53881;SDS011;39794;55.782;37.452;2023-07-31T06:42:38;2.83;;;1.52;;
53881;SDS011;39794;55.782;37.452;2023-07-31T06:45:07;10.02;;;2.67;;
53881;SDS011;39794;55.782;37.452;2023-07-31T06:47:37;5.93;;;1.90;;
53881;SDS011;39794;55.782;37.452;2023-07-31T06:50:06;3.75;;;1.40;;
53881;SDS011;39794;55.782;37.452;2023-07-31T06:52:38;7.43;;;1.88;;
53881;SDS011;39794;55.782;37.452;2023-07-31T06:55:18;2.92;;;1.48;;
53881;SDS011;39794;55.782;37.452;2023-07-31T06:57:48;3.42;;;1.90;;
53881;SDS011;39794;55.782;37.452;2023-07-31T07:00:17;2.28;;;1.40;;
53881;SDS011;39794;55.782;37.452;2023-07-31T07:02:46;2.83;;;1.45;;
53881;SDS011;39794;55.782;37.452;2023-07-31T07:05:15;4.53;;;1.30;;
53881;SDS011;39794;55.782;37.452;2023-07-31T07:07:45;1.25;;;0.95;;
53881;SDS011;39794;55.782;37.452;2023-07-31T07:10:14;3.25;;;1.00;;
53881;SDS011;39794;55.782;37.452;2023-07-31T07:12:46;1.85;;;1.33;;
53881;SDS011;39794;55.782;37.452;2023-07-31T07:15:15;3.17;;;1.50;;
53881;SDS011;39794;55.782;37.452;2023-07-31T07:17:44;1.63;;;1.10;;
53881;SDS011;39794;55.782;37.452;2023-07-31T07:20:12;4.22;;;1.33;;
53881;SDS011;39794;55.782;37.452;2023-07-31T07:22:41;2.80;;;1.30;;
53881;SDS011;39794;55.782;37.452;2023-07-31T07:25:10;5.75;;;1.00;;
53881;SDS011;39794;55.782;37.452;2023-07-31T07:27:39;3.67;;;1.17;;
53881;SDS011;39794;55.782;37.452;2023-07-31T07:30:10;2.00;;;0.98;;
53881;SDS011;39794;55.782;37.452;2023-07-31T07:32:39;3.13;;;1.30;;
53881;SDS011;39794;55.782;37.452;2023-07-31T07:35:07;2.33;;;1.23;;
53881;SDS011;39794;55.782;37.452;2023-07-31T07:37:39;2.17;;;1.10;;
53881;SDS011;39794;55.782;37.452;2023-07-31T07:40:10;3.50;;;1.27;;
53881;SDS011;39794;55.782;37.452;2023-07-31T07:42:40;2.75;;;1.10;;
53881;SDS011;39794;55.782;37.452;2023-07-31T07:45:10;1.80;;;0.95;;
53881;SDS011;39794;55.782;37.452;2023-07-31T07:47:40;1.77;;;0.90;;
53881;SDS011;39794;55.782;37.452;2023-07-31T07:50:09;2.85;;;1.02;;
53881;SDS011;39794;55.782;37.452;2023-07-31T07:52:38;2.95;;;0.82;;
53881;SDS011;39794;55.782;37.452;2023-07-31T07:55:10;2.05;;;1.15;;
53881;SDS011;39794;55.782;37.452;2023-07-31T07:57:38;1.40;;;1.30;;
53881;SDS011;39794;55.782;37.452;2023-07-31T08:00:07;5.55;;;1.23;;
53881;SDS011;39794;55.782;37.452;2023-07-31T08:02:41;6.30;;;1.30;;
53881;SDS011;39794;55.782;37.452;2023-07-31T08:05:10;3.65;;;1.20;;
53881;SDS011;39794;55.782;37.452;2023-07-31T08:07:39;3.60;;;1.10;;
53881;SDS011;39794;55.782;37.452;2023-07-31T08:10:07;2.90;;;1.10;;
53881;SDS011;39794;55.782;37.452;2023-07-31T08:12:36;4.88;;;1.10;;
53881;SDS011;39794;55.782;37.452;2023-07-31T08:15:05;4.03;;;0.98;;
53881;SDS011;39794;55.782;37.452;2023-07-31T08:17:35;3.22;;;1.00;;
53881;SDS011;39794;55.782;37.452;2023-07-31T08:20:07;2.72;;;1.20;;
53881;SDS011;39794;55.782;37.452;2023-07-31T08:22:37;3.92;;;1.08;;
53881;SDS011;39794;55.782;37.452;2023-07-31T08:25:06;1.25;;;1.15;;
53881;SDS011;39794;55.782;37.452;2023-07-31T08:27:35;2.55;;;1.38;;
53881;SDS011;39794;55.782;37.452;2023-07-31T08:30:04;2.17;;;1.33;;
53881;SDS011;39794;55.782;37.452;2023-07-31T08:32:33;3.53;;;1.48;;
53881;SDS011;39794;55.782;37.452;2023-07-31T08:35:02;2.08;;;1.30;;
53881;SDS011;39794;55.782;37.452;2023-07-31T08:37:32;2.40;;;1.40;;
53881;SDS011;39794;55.782;37.452;2023-07-31T08:40:01;1.55;;;1.17;;
53881;SDS011;39794;55.782;37.452;2023-07-31T08:42:31;1.90;;;1.20;;
53881;SDS011;39794;55.782;37.452;2023-07-31T08:45:00;3.40;;;1.48;;
53881;SDS011;39794;55.782;37.452;2023-07-31T08:47:33;2.00;;;1.40;;
53881;SDS011;39794;55.782;37.452;2023-07-31T08:50:01;3.17;;;1.45;;
53881;SDS011;39794;55.782;37.452;2023-07-31T08:52:30;4.07;;;1.13;;
53881;SDS011;39794;55.782;37.452;2023-07-31T08:55:00;1.60;;;1.40;;
53881;SDS011;39794;55.782;37.452;2023-07-31T08:57:29;1.48;;;1.05;;
53881;SDS011;39794;55.782;37.452;2023-07-31T08:59:58;3.22;;;1.23;;
53881;SDS011;39794;55.782;37.452;2023-07-31T09:02:36;1.95;;;1.30;;
53881;SDS011;39794;55.782;37.452;2023-07-31T09:05:07;2.05;;;1.40;;
53881;SDS011;39794;55.782;37.452;2023-07-31T09:07:37;2.85;;;1.38;;
53881;SDS011;39794;55.782;37.452;2023-07-31T09:10:08;3.97;;;1.45;;
53881;SDS011;39794;55.782;37.452;2023-07-31T09:12:37;4.80;;;1.40;;
53881;SDS011;39794;55.782;37.452;2023-07-31T09:15:06;4.40;;;1.60;;
53881;SDS011;39794;55.782;37.452;2023-07-31T09:17:46;5.50;;;1.58;;
53881;SDS011;39794;55.782;37.452;2023-07-31T09:20:16;4.05;;;1.42;;
53881;SDS011;39794;55.782;37.452;2023-07-31T09:22:46;2.65;;;1.10;;
53881;SDS011;39794;55.782;37.452;2023-07-31T09:25:19;1.77;;;1.45;;
53881;SDS011;39794;55.782;37.452;2023-07-31T09:27:49;3.40;;;1.55;;
53881;SDS011;39794;55.782;37.452;2023-07-31T09:30:19;2.17;;;1.20;;
53881;SDS011;39794;55.782;37.452;2023-07-31T09:32:48;1.58;;;1.30;;
53881;SDS011;39794;55.782;37.452;2023-07-31T09:35:19;1.73;;;1.10;;
53881;SDS011;39794;55.782;37.452;2023-07-31T09:37:49;2.20;;;1.55;;
53881;SDS011;39794;55.782;37.452;2023-07-31T09:40:27;1.48;;;1.10;;
53881;SDS011;39794;55.782;37.452;2023-07-31T09:42:56;1.90;;;1.20;;
53881;SDS011;39794;55.782;37.452;2023-07-31T09:45:26;2.92;;;1.30;;
53881;SDS011;39794;55.782;37.452;2023-07-31T09:48:07;2.08;;;1.17;;
53881;SDS011;39794;55.782;37.452;2023-07-31T09:50:37;4.00;;;1.63;;
53881;SDS011;39794;55.782;37.452;2023-07-31T09:53:07;1.77;;;1.30;;
53881;SDS011;39794;55.782;37.452;2023-07-31T09:55:38;3.55;;;1.45;;
53881;SDS011;39794;55.782;37.452;2023-07-31T09:58:09;3.95;;;1.48;;
53881;SDS011;39794;55.782;37.452;2023-07-31T10:00:38;1.38;;;1.20;;
53881;SDS011;39794;55.782;37.452;2023-07-31T10:03:08;4.68;;;1.20;;
53881;SDS011;39794;55.782;37.452;2023-07-31T10:05:39;2.03;;;1.27;;
53881;SDS011;39794;55.782;37.452;2023-07-31T10:08:11;3.35;;;1.45;;
53881;SDS011;39794;55.782;37.452;2023-07-31T10:10:44;1.75;;;1.58;;
53881;SDS011;39794;55.782;37.452;2023-07-31T10:13:13;4.15;;;1.40;;
53881;SDS011;39794;55.782;37.452;2023-07-31T10:15:42;2.97;;;1.65;;
53881;SDS011;39794;55.782;37.452;2023-07-31T10:18:11;1.60;;;1.25;;
53881;SDS011;39794;55.782;37.452;2023-07-31T10:20:39;1.60;;;1.30;;
53881;SDS011;39794;55.782;37.452;2023-07-31T10:23:08;6.85;;;2.10;;
53881;SDS011;39794;55.782;37.452;2023-07-31T10:25:37;4.60;;;1.92;;
53881;SDS011;39794;55.782;37.452;2023-07-31T10:28:08;3.17;;;1.52;;
53881;SDS011;39794;55.782;37.452;2023-07-31T10:30:38;2.40;;;1.45;;
53881;SDS011;39794;55.782;37.452;2023-07-31T10:33:07;1.85;;;1.35;;
53881;SDS011;39794;55.782;37.452;2023-07-31T10:35:36;3.83;;;1.23;;
53881;SDS011;39794;55.782;37.452;2023-07-31T10:38:09;2.20;;;1.60;;
53881;SDS011;39794;55.782;37.452;2023-07-31T10:40:38;2.72;;;1.52;;
53881;SDS011;39794;55.782;37.452;2023-07-31T10:43:11;4.63;;;1.63;;
53881;SDS011;39794;55.782;37.452;2023-07-31T10:45:52;3.13;;;1.20;;
53881;SDS011;39794;55.782;37.452;2023-07-31T10:48:21;2.55;;;1.40;;
53881;SDS011;39794;55.782;37.452;2023-07-31T10:50:51;1.38;;;1.25;;
53881;SDS011;39794;55.782;37.452;2023-07-31T10:53:23;3.08;;;1.40;;
53881;SDS011;39794;55.782;37.452;2023-07-31T10:55:53;4.63;;;1.43;;
53881;SDS011;39794;55.782;37.452;2023-07-31T10:58:23;2.20;;;1.50;;
53881;SDS011;39794;55.782;37.452;2023-07-31T11:00:55;1.80;;;1.52;;
53881;SDS011;39794;55.782;37.452;2023-07-31T11:03:25;2.85;;;1.10;;
53881;SDS011;39794;55.782;37.452;2023-07-31T11:05:59;2.15;;;1.48;;
53881;SDS011;39794;55.782;37.452;2023-07-31T11:08:31;4.43;;;1.45;;
53881;SDS011;39794;55.782;37.452;2023-07-31T11:11:07;1.98;;;1.35;;
53881;SDS011;39794;55.782;37.452;2023-07-31T11:13:43;1.60;;;1.40;;
53881;SDS011;39794;55.782;37.452;2023-07-31T11:16:15;2.97;;;1.70;;
53881;SDS011;39794;55.782;37.452;2023-07-31T11:18:46;2.95;;;1.63;;
53881;SDS011;39794;55.782;37.452;2023-07-31T11:21:17;4.95;;;1.67;;
53881;SDS011;39794;55.782;37.452;2023-07-31T11:23:47;1.38;;;1.27;;
53881;SDS011;39794;55.782;37.452;2023-07-31T11:26:16;3.00;;;1.48;;
53881;SDS011;39794;55.782;37.452;2023-07-31T11:28:48;1.90;;;1.48;;
53881;SDS011;39794;55.782;37.452;2023-07-31T11:31:17;1.67;;;1.20;;
53881;SDS011;39794;55.782;37.452;2023-07-31T11:33:46;1.60;;;1.50;;
53881;SDS011;39794;55.782;37.452;2023-07-31T11:36:16;3.05;;;1.50;;
53881;SDS011;39794;55.782;37.452;2023-07-31T11:38:45;2.75;;;1.50;;
53881;SDS011;39794;55.782;37.452;2023-07-31T11:41:15;2.88;;;1.40;;
53881;SDS011;39794;55.782;37.452;2023-07-31T11:43:45;4.88;;;1.35;;
53881;SDS011;39794;55.782;37.452;2023-07-31T11:46:16;3.95;;;2.10;;
53881;SDS011;39794;55.782;37.452;2023-07-31T11:48:46;3.30;;;2.88;;
53881;SDS011;39794;55.782;37.452;2023-07-31T11:51:15;2.20;;;1.70;;
53881;SDS011;39794;55.782;37.452;2023-07-31T11:53:44;1.98;;;1.48;;
53881;SDS011;39794;55.782;37.452;2023-07-31T11:56:14;1.40;;;1.20;;
53881;SDS011;39794;55.782;37.452;2023-07-31T11:58:45;3.60;;;1.50;;
53881;SDS011;39794;55.782;37.452;2023-07-31T12:01:19;3.83;;;1.33;;
53881;SDS011;39794;55.782;37.452;2023-07-31T12:03:50;4.68;;;1.80;;
53881;SDS011;39794;55.782;37.452;2023-07-31T12:06:21;2.30;;;1.80;;
53881;SDS011;39794;55.782;37.452;2023-07-31T12:08:50;4.38;;;1.48;;
53881;SDS011;39794;55.782;37.452;2023-07-31T12:11:20;2.15;;;1.80;;
53881;SDS011;39794;55.782;37.452;2023-07-31T12:13:48;2.65;;;1.48;;
53881;SDS011;39794;55.782;37.452;2023-07-31T12:16:18;4.63;;;1.60;;
53881;SDS011;39794;55.782;37.452;2023-07-31T12:18:49;2.20;;;2.00;;
53881;SDS011;39794;55.782;37.452;2023-07-31T12:21:17;3.50;;;1.75;;
53881;SDS011;39794;55.782;37.452;2023-07-31T12:23:47;5.68;;;1.77;;
53881;SDS011;39794;55.782;37.452;2023-07-31T12:26:16;5.32;;;1.50;;
53881;SDS011;39794;55.782;37.452;2023-07-31T12:28:45;2.47;;;2.05;;
53881;SDS011;39794;55.782;37.452;2023-07-31T12:31:15;3.97;;;1.55;;
53881;SDS011;39794;55.782;37.452;2023-07-31T12:33:47;4.80;;;2.13;;
53881;SDS011;39794;55.782;37.452;2023-07-31T12:36:25;4.32;;;1.92;;
53881;SDS011;39794;55.782;37.452;2023-07-31T12:38:54;4.55;;;1.90;;
53881;SDS011;39794;55.782;37.452;2023-07-31T12:41:26;5.45;;;2.45;;
53881;SDS011;39794;55.782;37.452;2023-07-31T12:43:55;2.92;;;2.00;;
53881;SDS011;39794;55.782;37.452;2023-07-31T12:46:24;6.88;;;2.10;;
53881;SDS011;39794;55.782;37.452;2023-07-31T12:48:54;7.60;;;2.50;;
53881;SDS011;39794;55.782;37.452;2023-07-31T12:51:23;5.03;;;2.42;;
53881;SDS011;39794;55.782;37.452;2023-07-31T12:53:52;3.28;;;1.73;;
53881;SDS011;39794;55.782;37.452;2023-07-31T12:56:20;4.90;;;2.25;;
53881;SDS011;39794;55.782;37.452;2023-07-31T12:58:49;5.25;;;2.13;;
53881;SDS011;39794;55.782;37.452;2023-07-31T13:01:17;5.22;;;2.70;;
53881;SDS011;39794;55.782;37.452;2023-07-31T13:03:46;5.65;;;2.30;;
53881;SDS011;39794;55.782;37.452;2023-07-31T13:06:16;5.40;;;1.90;;
53881;SDS011;39794;55.782;37.452;2023-07-31T13:08:45;6.85;;;2.30;;
53881;SDS011;39794;55.782;37.452;2023-07-31T13:11:14;5.90;;;2.40;;
53881;SDS011;39794;55.782;37.452;2023-07-31T13:13:43;2.75;;;2.10;;
53881;SDS011;39794;55.782;37.452;2023-07-31T13:16:12;4.10;;;2.00;;
53881;SDS011;39794;55.782;37.452;2023-07-31T13:18:40;5.30;;;2.08;;
53881;SDS011;39794;55.782;37.452;2023-07-31T13:21:09;5.00;;;1.90;;
53881;SDS011;39794;55.782;37.452;2023-07-31T13:23:39;4.97;;;2.15;;
53881;SDS011;39794;55.782;37.452;2023-07-31T13:26:07;4.85;;;2.00;;
53881;SDS011;39794;55.782;37.452;2023-07-31T13:28:36;9.65;;;2.28;;
53881;SDS011;39794;55.782;37.452;2023-07-31T13:31:04;9.85;;;1.95;;
53881;SDS011;39794;55.782;37.452;2023-07-31T13:33:33;4.10;;;1.75;;
53881;SDS011;39794;55.782;37.452;2023-07-31T13:36:04;3.80;;;1.73;;
53881;SDS011;39794;55.782;37.452;2023-07-31T13:38:33;4.22;;;1.38;;
53881;SDS011;39794;55.782;37.452;2023-07-31T13:41:02;4.63;;;1.38;;
53881;SDS011;39794;55.782;37.452;2023-07-31T13:43:32;5.32;;;2.00;;
53881;SDS011;39794;55.782;37.452;2023-07-31T13:46:00;1.35;;;1.25;;
53881;SDS011;39794;55.782;37.452;2023-07-31T13:48:34;3.47;;;1.60;;
53881;SDS011;39794;55.782;37.452;2023-07-31T13:51:03;5.53;;;1.67;;
53881;SDS011;39794;55.782;37.452;2023-07-31T13:53:32;3.58;;;1.58;;
53881;SDS011;39794;55.782;37.452;2023-07-31T13:56:00;4.25;;;2.35;;
53881;SDS011;39794;55.782;37.452;2023-07-31T13:58:35;2.72;;;2.30;;
53881;SDS011;39794;55.782;37.452;2023-07-31T14:01:04;3.42;;;1.77;;
53881;SDS011;39794;55.782;37.452;2023-07-31T14:03:32;2.42;;;1.70;;
53881;SDS011;39794;55.782;37.452;2023-07-31T14:06:01;4.63;;;1.67;;
53881;SDS011;39794;55.782;37.452;2023-07-31T14:08:31;5.07;;;1.55;;
53881;SDS011;39794;55.782;37.452;2023-07-31T14:11:00;3.30;;;1.73;;
53881;SDS011;39794;55.782;37.452;2023-07-31T14:13:29;3.75;;;1.88;;
53881;SDS011;39794;55.782;37.452;2023-07-31T14:15:59;3.03;;;1.88;;
53881;SDS011;39794;55.782;37.452;2023-07-31T14:18:27;3.10;;;1.50;;
53881;SDS011;39794;55.782;37.452;2023-07-31T14:20:56;1.80;;;1.42;;
53881;SDS011;39794;55.782;37.452;2023-07-31T14:23:25;3.33;;;1.80;;
53881;SDS011;39794;55.782;37.452;2023-07-31T14:25:53;5.03;;;1.90;;
53881;SDS011;39794;55.782;37.452;2023-07-31T14:28:22;3.60;;;2.20;;
53881;SDS011;39794;55.782;37.452;2023-07-31T14:30:51;2.30;;;2.10;;
53881;SDS011;39794;55.782;37.452;2023-07-31T14:33:21;4.25;;;2.30;;
53881;SDS011;39794;55.782;37.452;2023-07-31T14:35:49;4.07;;;2.50;;
53881;SDS011;39794;55.782;37.452;2023-07-31T14:38:18;3.05;;;1.92;;
53881;SDS011;39794;55.782;37.452;2023-07-31T14:40:46;4.25;;;2.03;;
53881;SDS011;39794;55.782;37.452;2023-07-31T14:43:15;3.85;;;2.17;;
53881;SDS011;39794;55.782;37.452;2023-07-31T14:45:44;4.53;;;2.03;;
53881;SDS011;39794;55.782;37.452;2023-07-31T14:48:13;3.38;;;2.50;;
53881;SDS011;39794;55.782;37.452;2023-07-31T14:50:43;3.17;;;2.33;;